sensor_id;sensor_type;location;lat;lon;timestamp;P1;durP1;ratioP1;P2;durP2;ratioP2
24325;SDS011;12448;45.532;5.290;2023-01-24T00:00:05;34.73;;;18.80;;
24325;SDS011;12448;45.532;5.290;2023-01-24T00:02:33;37.10;;;18.97;;
24325;SDS011;12448;45.532;5.290;2023-01-24T00:04:58;32.93;;;18.10;;
24325;SDS011;12448;45.532;5.290;2023-01-24T00:07:24;33.20;;;18.40;;
24325;SDS011;12448;45.532;5.290;2023-01-24T00:09:49;41.10;;;22.37;;
24325;SDS011;12448;45.532;5.290;2023-01-24T00:12:15;48.13;;;28.27;;
24325;SDS011;12448;45.532;5.290;2023-01-24T00:14:40;41.63;;;21.87;;
24325;SDS011;12448;45.532;5.290;2023-01-24T00:17:06;36.20;;;20.03;;
24325;SDS011;12448;45.532;5.290;2023-01-24T00:19:33;35.27;;;18.90;;
24325;SDS011;12448;45.532;5.290;2023-01-24T00:21:59;35.50;;;18.83;;
24325;SDS011;12448;45.532;5.290;2023-01-24T00:24:26;41.53;;;22.27;;
24325;SDS011;12448;45.532;5.290;2023-01-24T00:26:51;34.57;;;18.67;;
24325;SDS011;12448;45.532;5.290;2023-01-24T00:29:17;37.43;;;19.47;;
24325;SDS011;12448;45.532;5.290;2023-01-24T00:31:43;39.07;;;19.77;;
24325;SDS011;12448;45.532;5.290;2023-01-24T00:34:09;37.83;;;19.20;;
24325;SDS011;12448;45.532;5.290;2023-01-24T00:36:35;39.00;;;18.73;;
24325;SDS011;12448;45.532;5.290;2023-01-24T00:39:00;31.50;;;17.50;;
24325;SDS011;12448;45.532;5.290;2023-01-24T00:41:26;33.20;;;18.57;;
24325;SDS011;12448;45.532;5.290;2023-01-24T00:43:52;35.07;;;18.83;;
24325;SDS011;12448;45.532;5.290;2023-01-24T00:46:17;32.37;;;17.93;;
24325;SDS011;12448;45.532;5.290;2023-01-24T00:48:43;32.47;;;18.00;;
24325;SDS011;12448;45.532;5.290;2023-01-24T00:51:08;30.67;;;17.30;;
24325;SDS011;12448;45.532;5.290;2023-01-24T00:53:34;32.47;;;17.70;;
24325;SDS011;12448;45.532;5.290;2023-01-24T00:55:59;34.63;;;18.67;;
24325;SDS011;12448;45.532;5.290;2023-01-24T00:58:25;33.27;;;18.23;;
24325;SDS011;12448;45.532;5.290;2023-01-24T01:00:54;33.00;;;17.70;;
24325;SDS011;12448;45.532;5.290;2023-01-24T01:03:21;32.73;;;17.77;;
24325;SDS011;12448;45.532;5.290;2023-01-24T01:05:46;38.83;;;18.03;;
24325;SDS011;12448;45.532;5.290;2023-01-24T01:08:12;33.17;;;18.17;;
24325;SDS011;12448;45.532;5.290;2023-01-24T01:10:38;33.97;;;18.17;;
24325;SDS011;12448;45.532;5.290;2023-01-24T01:13:04;34.37;;;17.40;;
24325;SDS011;12448;45.532;5.290;2023-01-24T01:15:30;34.70;;;19.10;;
24325;SDS011;12448;45.532;5.290;2023-01-24T01:17:57;33.80;;;18.30;;
24325;SDS011;12448;45.532;5.290;2023-01-24T01:20:23;32.97;;;19.03;;
24325;SDS011;12448;45.532;5.290;2023-01-24T01:22:49;30.90;;;16.77;;
24325;SDS011;12448;45.532;5.290;2023-01-24T01:25:14;33.70;;;17.77;;
24325;SDS011;12448;45.532;5.290;2023-01-24T01:27:40;33.40;;;18.20;;
24325;SDS011;12448;45.532;5.290;2023-01-24T01:30:06;33.73;;;18.87;;
24325;SDS011;12448;45.532;5.290;2023-01-24T01:32:32;34.63;;;18.57;;
24325;SDS011;12448;45.532;5.290;2023-01-24T01:34:58;33.97;;;18.60;;
24325;SDS011;12448;45.532;5.290;2023-01-24T01:37:23;34.37;;;18.27;;
24325;SDS011;12448;45.532;5.290;2023-01-24T01:39:49;37.50;;;19.90;;
24325;SDS011;12448;45.532;5.290;2023-01-24T01:42:14;34.60;;;19.40;;
24325;SDS011;12448;45.532;5.290;2023-01-24T01:44:41;34.60;;;17.30;;
24325;SDS011;12448;45.532;5.290;2023-01-24T01:49:40;33.27;;;18.10;;
24325;SDS011;12448;45.532;5.290;2023-01-24T01:52:13;35.80;;;19.53;;
24325;SDS011;12448;45.532;5.290;2023-01-24T01:54:39;34.47;;;17.63;;
24325;SDS011;12448;45.532;5.290;2023-01-24T01:57:12;33.23;;;18.60;;
24325;SDS011;12448;45.532;5.290;2023-01-24T01:59:43;39.37;;;18.93;;
24325;SDS011;12448;45.532;5.290;2023-01-24T02:02:16;36.27;;;18.83;;
24325;SDS011;12448;45.532;5.290;2023-01-24T02:04:46;34.73;;;18.30;;
24325;SDS011;12448;45.532;5.290;2023-01-24T02:07:21;36.67;;;18.67;;
24325;SDS011;12448;45.532;5.290;2023-01-24T02:10:09;36.43;;;18.27;;
24325;SDS011;12448;45.532;5.290;2023-01-24T02:12:39;36.00;;;19.27;;
24325;SDS011;12448;45.532;5.290;2023-01-24T02:15:11;36.67;;;18.83;;
24325;SDS011;12448;45.532;5.290;2023-01-24T02:17:57;34.37;;;19.03;;
24325;SDS011;12448;45.532;5.290;2023-01-24T02:28:32;36.73;;;19.67;;
24325;SDS011;12448;45.532;5.290;2023-01-24T02:30:58;35.23;;;19.73;;
24325;SDS011;12448;45.532;5.290;2023-01-24T02:33:24;39.90;;;20.90;;
24325;SDS011;12448;45.532;5.290;2023-01-24T02:35:51;36.67;;;19.10;;
24325;SDS011;12448;45.532;5.290;2023-01-24T02:38:37;33.47;;;18.27;;
24325;SDS011;12448;45.532;5.290;2023-01-24T02:41:05;32.93;;;19.47;;
24325;SDS011;12448;45.532;5.290;2023-01-24T02:43:37;35.57;;;19.60;;
24325;SDS011;12448;45.532;5.290;2023-01-24T02:46:07;40.77;;;21.03;;
24325;SDS011;12448;45.532;5.290;2023-01-24T02:48:33;35.80;;;19.50;;
24325;SDS011;12448;45.532;5.290;2023-01-24T02:50:58;37.43;;;19.10;;
24325;SDS011;12448;45.532;5.290;2023-01-24T02:53:42;37.37;;;18.83;;
24325;SDS011;12448;45.532;5.290;2023-01-24T02:56:08;39.57;;;18.90;;
24325;SDS011;12448;45.532;5.290;2023-01-24T02:58:53;39.03;;;19.23;;
24325;SDS011;12448;45.532;5.290;2023-01-24T03:01:19;37.67;;;19.73;;
24325;SDS011;12448;45.532;5.290;2023-01-24T03:03:46;41.40;;;19.50;;
24325;SDS011;12448;45.532;5.290;2023-01-24T03:06:13;38.70;;;19.50;;
24325;SDS011;12448;45.532;5.290;2023-01-24T03:08:40;37.93;;;20.80;;
24325;SDS011;12448;45.532;5.290;2023-01-24T03:11:06;39.27;;;20.77;;
24325;SDS011;12448;45.532;5.290;2023-01-24T03:13:34;39.03;;;19.83;;
24325;SDS011;12448;45.532;5.290;2023-01-24T03:16:18;43.67;;;21.33;;
24325;SDS011;12448;45.532;5.290;2023-01-24T03:19:03;39.73;;;21.23;;
24325;SDS011;12448;45.532;5.290;2023-01-24T03:21:47;39.63;;;21.37;;
24325;SDS011;12448;45.532;5.290;2023-01-24T03:24:31;43.97;;;21.93;;
24325;SDS011;12448;45.532;5.290;2023-01-24T03:27:16;39.67;;;21.23;;
24325;SDS011;12448;45.532;5.290;2023-01-24T03:30:00;41.27;;;22.73;;
24325;SDS011;12448;45.532;5.290;2023-01-24T03:32:45;40.40;;;20.73;;
24325;SDS011;12448;45.532;5.290;2023-01-24T03:35:29;38.33;;;20.27;;
24325;SDS011;12448;45.532;5.290;2023-01-24T03:37:55;44.23;;;22.13;;
24325;SDS011;12448;45.532;5.290;2023-01-24T03:40:40;39.23;;;21.40;;
24325;SDS011;12448;45.532;5.290;2023-01-24T03:43:06;41.80;;;22.07;;
24325;SDS011;12448;45.532;5.290;2023-01-24T03:45:33;40.30;;;22.43;;
24325;SDS011;12448;45.532;5.290;2023-01-24T03:48:01;40.00;;;20.43;;
24325;SDS011;12448;45.532;5.290;2023-01-24T03:50:39;41.47;;;21.10;;
24325;SDS011;12448;45.532;5.290;2023-01-24T03:53:26;43.30;;;20.80;;
24325;SDS011;12448;45.532;5.290;2023-01-24T03:55:54;40.07;;;20.10;;
24325;SDS011;12448;45.532;5.290;2023-01-24T03:58:24;43.20;;;20.23;;
24325;SDS011;12448;45.532;5.290;2023-01-24T04:00:51;40.70;;;20.20;;
24325;SDS011;12448;45.532;5.290;2023-01-24T04:03:18;47.03;;;20.17;;
24325;SDS011;12448;45.532;5.290;2023-01-24T04:05:45;39.53;;;20.73;;
24325;SDS011;12448;45.532;5.290;2023-01-24T04:08:15;39.27;;;21.73;;
24325;SDS011;12448;45.532;5.290;2023-01-24T04:10:41;44.07;;;21.93;;
24325;SDS011;12448;45.532;5.290;2023-01-24T04:13:08;42.23;;;20.93;;
24325;SDS011;12448;45.532;5.290;2023-01-24T04:15:34;36.50;;;18.13;;
24325;SDS011;12448;45.532;5.290;2023-01-24T04:18:00;40.60;;;21.10;;
24325;SDS011;12448;45.532;5.290;2023-01-24T04:20:28;42.00;;;21.07;;
24325;SDS011;12448;45.532;5.290;2023-01-24T04:22:55;43.27;;;20.93;;
24325;SDS011;12448;45.532;5.290;2023-01-24T04:25:21;39.23;;;20.70;;
24325;SDS011;12448;45.532;5.290;2023-01-24T04:27:47;38.07;;;20.60;;
24325;SDS011;12448;45.532;5.290;2023-01-24T04:30:15;42.73;;;20.83;;
24325;SDS011;12448;45.532;5.290;2023-01-24T04:32:41;43.87;;;21.33;;
24325;SDS011;12448;45.532;5.290;2023-01-24T04:35:07;44.03;;;20.73;;
24325;SDS011;12448;45.532;5.290;2023-01-24T04:37:39;37.93;;;19.80;;
24325;SDS011;12448;45.532;5.290;2023-01-24T04:40:05;45.97;;;22.30;;
24325;SDS011;12448;45.532;5.290;2023-01-24T04:42:31;48.80;;;23.40;;
24325;SDS011;12448;45.532;5.290;2023-01-24T04:44:57;43.67;;;22.27;;
24325;SDS011;12448;45.532;5.290;2023-01-24T04:47:22;43.50;;;22.23;;
24325;SDS011;12448;45.532;5.290;2023-01-24T04:49:48;44.87;;;21.27;;
24325;SDS011;12448;45.532;5.290;2023-01-24T04:52:13;42.20;;;20.50;;
24325;SDS011;12448;45.532;5.290;2023-01-24T04:54:39;38.63;;;19.90;;
24325;SDS011;12448;45.532;5.290;2023-01-24T04:57:05;63.73;;;29.67;;
24325;SDS011;12448;45.532;5.290;2023-01-24T04:59:31;105.60;;;49.17;;
24325;SDS011;12448;45.532;5.290;2023-01-24T05:01:57;52.57;;;25.13;;
24325;SDS011;12448;45.532;5.290;2023-01-24T05:04:22;51.83;;;26.30;;
24325;SDS011;12448;45.532;5.290;2023-01-24T05:06:48;63.83;;;28.80;;
24325;SDS011;12448;45.532;5.290;2023-01-24T05:09:13;74.33;;;36.20;;
24325;SDS011;12448;45.532;5.290;2023-01-24T05:11:39;78.57;;;41.27;;
24325;SDS011;12448;45.532;5.290;2023-01-24T05:14:05;46.63;;;25.30;;
24325;SDS011;12448;45.532;5.290;2023-01-24T05:16:34;41.30;;;21.50;;
24325;SDS011;12448;45.532;5.290;2023-01-24T05:19:00;144.80;;;61.33;;
24325;SDS011;12448;45.532;5.290;2023-01-24T05:21:26;137.50;;;60.90;;
24325;SDS011;12448;45.532;5.290;2023-01-24T05:23:52;49.20;;;25.77;;
24325;SDS011;12448;45.532;5.290;2023-01-24T05:26:19;45.00;;;23.07;;
24325;SDS011;12448;45.532;5.290;2023-01-24T05:28:46;64.20;;;31.33;;
24325;SDS011;12448;45.532;5.290;2023-01-24T05:31:12;191.30;;;82.80;;
24325;SDS011;12448;45.532;5.290;2023-01-24T05:33:38;122.30;;;55.93;;
24325;SDS011;12448;45.532;5.290;2023-01-24T05:36:06;55.10;;;26.57;;
24325;SDS011;12448;45.532;5.290;2023-01-24T05:38:36;45.47;;;22.07;;
24325;SDS011;12448;45.532;5.290;2023-01-24T05:41:03;47.67;;;25.47;;
24325;SDS011;12448;45.532;5.290;2023-01-24T05:43:30;85.87;;;44.33;;
24325;SDS011;12448;45.532;5.290;2023-01-24T05:46:06;69.87;;;35.23;;
24325;SDS011;12448;45.532;5.290;2023-01-24T05:48:35;74.10;;;42.90;;
24325;SDS011;12448;45.532;5.290;2023-01-24T05:51:02;78.77;;;40.37;;
24325;SDS011;12448;45.532;5.290;2023-01-24T05:53:33;55.60;;;30.10;;
24325;SDS011;12448;45.532;5.290;2023-01-24T05:56:02;47.47;;;26.07;;
24325;SDS011;12448;45.532;5.290;2023-01-24T05:58:31;46.70;;;22.27;;
24325;SDS011;12448;45.532;5.290;2023-01-24T06:01:00;48.13;;;24.37;;
24325;SDS011;12448;45.532;5.290;2023-01-24T06:03:25;48.23;;;24.43;;
24325;SDS011;12448;45.532;5.290;2023-01-24T06:05:51;45.80;;;23.37;;
24325;SDS011;12448;45.532;5.290;2023-01-24T06:08:19;106.50;;;38.13;;
24325;SDS011;12448;45.532;5.290;2023-01-24T06:10:45;587.60;;;216.50;;
24325;SDS011;12448;45.532;5.290;2023-01-24T06:13:11;498.30;;;185.40;;
24325;SDS011;12448;45.532;5.290;2023-01-24T06:15:37;126.73;;;56.87;;
24325;SDS011;12448;45.532;5.290;2023-01-24T06:18:04;60.40;;;31.37;;
24325;SDS011;12448;45.532;5.290;2023-01-24T06:20:30;53.60;;;28.90;;
24325;SDS011;12448;45.532;5.290;2023-01-24T06:22:56;55.63;;;31.47;;
24325;SDS011;12448;45.532;5.290;2023-01-24T06:25:25;81.30;;;48.43;;
24325;SDS011;12448;45.532;5.290;2023-01-24T06:27:51;82.07;;;44.47;;
24325;SDS011;12448;45.532;5.290;2023-01-24T06:30:18;66.53;;;37.37;;
24325;SDS011;12448;45.532;5.290;2023-01-24T06:37:54;49.83;;;25.13;;
24325;SDS011;12448;45.532;5.290;2023-01-24T06:40:21;48.83;;;25.27;;
24325;SDS011;12448;45.532;5.290;2023-01-24T06:42:48;57.33;;;29.93;;
24325;SDS011;12448;45.532;5.290;2023-01-24T06:45:14;58.00;;;32.43;;
24325;SDS011;12448;45.532;5.290;2023-01-24T06:47:40;48.60;;;25.33;;
24325;SDS011;12448;45.532;5.290;2023-01-24T06:50:06;49.27;;;25.13;;
24325;SDS011;12448;45.532;5.290;2023-01-24T06:52:35;49.80;;;25.90;;
24325;SDS011;12448;45.532;5.290;2023-01-24T06:55:00;53.33;;;28.93;;
24325;SDS011;12448;45.532;5.290;2023-01-24T06:57:26;47.37;;;24.67;;
24325;SDS011;12448;45.532;5.290;2023-01-24T06:59:51;47.37;;;23.47;;
24325;SDS011;12448;45.532;5.290;2023-01-24T07:02:17;85.30;;;46.10;;
24325;SDS011;12448;45.532;5.290;2023-01-24T07:04:42;105.60;;;58.17;;
24325;SDS011;12448;45.532;5.290;2023-01-24T07:07:08;113.80;;;60.60;;
24325;SDS011;12448;45.532;5.290;2023-01-24T07:09:33;69.63;;;33.63;;
24325;SDS011;12448;45.532;5.290;2023-01-24T07:11:59;51.60;;;23.80;;
24325;SDS011;12448;45.532;5.290;2023-01-24T07:14:25;104.90;;;52.37;;
24325;SDS011;12448;45.532;5.290;2023-01-24T07:16:51;241.00;;;119.63;;
24325;SDS011;12448;45.532;5.290;2023-01-24T07:19:18;52.10;;;25.90;;
24325;SDS011;12448;45.532;5.290;2023-01-24T07:21:49;52.60;;;25.23;;
24325;SDS011;12448;45.532;5.290;2023-01-24T07:24:20;59.13;;;27.13;;
24325;SDS011;12448;45.532;5.290;2023-01-24T07:26:47;53.30;;;26.00;;
24325;SDS011;12448;45.532;5.290;2023-01-24T07:29:15;58.17;;;26.93;;
24325;SDS011;12448;45.532;5.290;2023-01-24T07:31:43;46.80;;;23.73;;
24325;SDS011;12448;45.532;5.290;2023-01-24T07:34:09;49.53;;;23.63;;
24325;SDS011;12448;45.532;5.290;2023-01-24T07:36:35;49.00;;;23.53;;
24325;SDS011;12448;45.532;5.290;2023-01-24T07:39:00;51.10;;;24.13;;
24325;SDS011;12448;45.532;5.290;2023-01-24T07:41:26;47.37;;;23.63;;
24325;SDS011;12448;45.532;5.290;2023-01-24T07:43:52;55.63;;;28.50;;
24325;SDS011;12448;45.532;5.290;2023-01-24T07:46:18;50.33;;;25.37;;
24325;SDS011;12448;45.532;5.290;2023-01-24T07:48:44;58.23;;;28.23;;
24325;SDS011;12448;45.532;5.290;2023-01-24T07:51:10;56.53;;;26.67;;
24325;SDS011;12448;45.532;5.290;2023-01-24T07:53:35;91.83;;;46.53;;
24325;SDS011;12448;45.532;5.290;2023-01-24T07:56:01;58.13;;;29.60;;
24325;SDS011;12448;45.532;5.290;2023-01-24T07:58:28;85.93;;;45.00;;
24325;SDS011;12448;45.532;5.290;2023-01-24T08:00:54;118.43;;;65.77;;
24325;SDS011;12448;45.532;5.290;2023-01-24T08:03:19;73.90;;;40.77;;
24325;SDS011;12448;45.532;5.290;2023-01-24T08:05:45;82.27;;;41.07;;
24325;SDS011;12448;45.532;5.290;2023-01-24T08:08:10;57.83;;;29.93;;
24325;SDS011;12448;45.532;5.290;2023-01-24T08:10:36;103.77;;;60.43;;
24325;SDS011;12448;45.532;5.290;2023-01-24T08:13:02;50.47;;;24.63;;
24325;SDS011;12448;45.532;5.290;2023-01-24T08:15:27;53.43;;;28.37;;
24325;SDS011;12448;45.532;5.290;2023-01-24T08:17:53;61.53;;;33.20;;
24325;SDS011;12448;45.532;5.290;2023-01-24T08:20:18;49.33;;;24.33;;
24325;SDS011;12448;45.532;5.290;2023-01-24T08:22:44;46.37;;;22.50;;
24325;SDS011;12448;45.532;5.290;2023-01-24T08:25:10;53.03;;;27.23;;
24325;SDS011;12448;45.532;5.290;2023-01-24T08:27:39;170.77;;;77.57;;
24325;SDS011;12448;45.532;5.290;2023-01-24T08:30:05;44.47;;;23.58;;
24325;SDS011;12448;45.532;5.290;2023-01-24T08:32:32;49.47;;;23.17;;
24325;SDS011;12448;45.532;5.290;2023-01-24T08:34:58;54.63;;;25.80;;
24325;SDS011;12448;45.532;5.290;2023-01-24T08:37:24;45.07;;;23.17;;
24325;SDS011;12448;45.532;5.290;2023-01-24T08:39:49;53.83;;;25.50;;
24325;SDS011;12448;45.532;5.290;2023-01-24T08:42:15;48.20;;;25.20;;
24325;SDS011;12448;45.532;5.290;2023-01-24T08:44:40;47.77;;;23.67;;
24325;SDS011;12448;45.532;5.290;2023-01-24T08:47:06;43.93;;;22.03;;
24325;SDS011;12448;45.532;5.290;2023-01-24T08:49:32;44.97;;;22.60;;
24325;SDS011;12448;45.532;5.290;2023-01-24T08:51:58;45.60;;;22.43;;
24325;SDS011;12448;45.532;5.290;2023-01-24T08:54:29;46.30;;;22.87;;
24325;SDS011;12448;45.532;5.290;2023-01-24T08:57:00;58.70;;;31.73;;
24325;SDS011;12448;45.532;5.290;2023-01-24T08:59:27;67.83;;;35.40;;
24325;SDS011;12448;45.532;5.290;2023-01-24T09:01:53;67.80;;;32.13;;
24325;SDS011;12448;45.532;5.290;2023-01-24T09:04:19;53.43;;;24.07;;
24325;SDS011;12448;45.532;5.290;2023-01-24T09:06:44;116.70;;;52.27;;
24325;SDS011;12448;45.532;5.290;2023-01-24T09:09:10;49.07;;;24.50;;
24325;SDS011;12448;45.532;5.290;2023-01-24T09:11:36;52.23;;;26.93;;
24325;SDS011;12448;45.532;5.290;2023-01-24T09:14:01;51.70;;;27.97;;
24325;SDS011;12448;45.532;5.290;2023-01-24T09:16:27;48.63;;;24.90;;
24325;SDS011;12448;45.532;5.290;2023-01-24T09:18:53;49.00;;;23.77;;
24325;SDS011;12448;45.532;5.290;2023-01-24T09:21:19;47.33;;;23.60;;
24325;SDS011;12448;45.532;5.290;2023-01-24T09:23:46;48.53;;;23.57;;
24325;SDS011;12448;45.532;5.290;2023-01-24T09:26:11;65.70;;;36.77;;
24325;SDS011;12448;45.532;5.290;2023-01-24T09:28:37;72.07;;;38.67;;
24325;SDS011;12448;45.532;5.290;2023-01-24T09:31:06;59.80;;;32.93;;
24325;SDS011;12448;45.532;5.290;2023-01-24T09:33:33;48.20;;;23.57;;
24325;SDS011;12448;45.532;5.290;2023-01-24T09:36:00;57.40;;;30.13;;
24325;SDS011;12448;45.532;5.290;2023-01-24T09:38:28;54.07;;;29.57;;
24325;SDS011;12448;45.532;5.290;2023-01-24T09:43:51;51.50;;;23.55;;
24325;SDS011;12448;45.532;5.290;2023-01-24T09:51:37;60.33;;;31.17;;
24325;SDS011;12448;45.532;5.290;2023-01-24T09:54:13;46.53;;;23.30;;
24325;SDS011;12448;45.532;5.290;2023-01-24T09:56:46;40.40;;;22.63;;
24325;SDS011;12448;45.532;5.290;2023-01-24T10:04:21;42.90;;;23.53;;
24325;SDS011;12448;45.532;5.290;2023-01-24T10:10:11;37.17;;;21.77;;
24325;SDS011;12448;45.532;5.290;2023-01-24T10:15:32;53.42;;;28.08;;
24325;SDS011;12448;45.532;5.290;2023-01-24T10:18:24;57.15;;;29.45;;
24325;SDS011;12448;45.532;5.290;2023-01-24T10:23:50;43.03;;;22.17;;
24325;SDS011;12448;45.532;5.290;2023-01-24T10:26:20;41.83;;;23.52;;
24325;SDS011;12448;45.532;5.290;2023-01-24T10:28:51;46.53;;;24.00;;
24325;SDS011;12448;45.532;5.290;2023-01-24T10:31:26;40.65;;;22.27;;
24325;SDS011;12448;45.532;5.290;2023-01-24T10:34:04;60.40;;;37.38;;
24325;SDS011;12448;45.532;5.290;2023-01-24T10:39:40;48.28;;;27.05;;
24325;SDS011;12448;45.532;5.290;2023-01-24T10:42:12;45.97;;;25.55;;
24325;SDS011;12448;45.532;5.290;2023-01-24T10:44:48;45.67;;;25.67;;
24325;SDS011;12448;45.532;5.290;2023-01-24T10:50:00;48.53;;;25.83;;
24325;SDS011;12448;45.532;5.290;2023-01-24T10:52:28;39.92;;;21.60;;
24325;SDS011;12448;45.532;5.290;2023-01-24T10:54:55;45.33;;;23.05;;
24325;SDS011;12448;45.532;5.290;2023-01-24T11:00:18;44.22;;;23.80;;
24325;SDS011;12448;45.532;5.290;2023-01-24T11:02:57;50.93;;;28.97;;
24325;SDS011;12448;45.532;5.290;2023-01-24T11:05:36;45.05;;;24.08;;
24325;SDS011;12448;45.532;5.290;2023-01-24T11:08:25;39.25;;;22.35;;
24325;SDS011;12448;45.532;5.290;2023-01-24T11:10:58;37.20;;;20.00;;
24325;SDS011;12448;45.532;5.290;2023-01-24T11:13:26;51.20;;;28.63;;
24325;SDS011;12448;45.532;5.290;2023-01-24T11:15:53;51.65;;;25.42;;
24325;SDS011;12448;45.532;5.290;2023-01-24T11:18:26;50.07;;;25.57;;
24325;SDS011;12448;45.532;5.290;2023-01-24T11:21:14;59.08;;;30.60;;
24325;SDS011;12448;45.532;5.290;2023-01-24T11:23:42;51.08;;;26.90;;
24325;SDS011;12448;45.532;5.290;2023-01-24T11:26:22;59.03;;;30.63;;
24325;SDS011;12448;45.532;5.290;2023-01-24T11:28:57;61.23;;;31.80;;
24325;SDS011;12448;45.532;5.290;2023-01-24T11:31:28;59.33;;;29.60;;
24325;SDS011;12448;45.532;5.290;2023-01-24T11:39:36;42.57;;;22.73;;
24325;SDS011;12448;45.532;5.290;2023-01-24T11:42:32;49.45;;;22.80;;
24325;SDS011;12448;45.532;5.290;2023-01-24T11:45:07;41.20;;;21.20;;
24325;SDS011;12448;45.532;5.290;2023-01-24T11:48:06;39.72;;;21.85;;
24325;SDS011;12448;45.532;5.290;2023-01-24T11:50:43;44.13;;;23.60;;
24325;SDS011;12448;45.532;5.290;2023-01-24T12:01:47;41.33;;;21.55;;
24325;SDS011;12448;45.532;5.290;2023-01-24T12:04:38;44.28;;;22.67;;
24325;SDS011;12448;45.532;5.290;2023-01-24T12:09:48;40.28;;;21.35;;
24325;SDS011;12448;45.532;5.290;2023-01-24T12:17:53;39.70;;;19.40;;
24325;SDS011;12448;45.532;5.290;2023-01-24T12:20:52;43.80;;;22.27;;
24325;SDS011;12448;45.532;5.290;2023-01-24T12:26:17;36.93;;;17.73;;
24325;SDS011;12448;45.532;5.290;2023-01-24T12:28:47;47.13;;;24.23;;
24325;SDS011;12448;45.532;5.290;2023-01-24T12:34:13;34.43;;;18.73;;
24325;SDS011;12448;45.532;5.290;2023-01-24T12:45:30;40.42;;;21.60;;
24325;SDS011;12448;45.532;5.290;2023-01-24T12:53:32;29.53;;;15.47;;
24325;SDS011;12448;45.532;5.290;2023-01-24T12:56:12;40.33;;;21.77;;
24325;SDS011;12448;45.532;5.290;2023-01-24T12:58:46;39.50;;;20.13;;
24325;SDS011;12448;45.532;5.290;2023-01-24T13:01:24;39.22;;;20.77;;
24325;SDS011;12448;45.532;5.290;2023-01-24T13:09:41;37.97;;;22.30;;
24325;SDS011;12448;45.532;5.290;2023-01-24T13:12:22;44.97;;;22.02;;
24325;SDS011;12448;45.532;5.290;2023-01-24T13:14:52;37.67;;;19.33;;
24325;SDS011;12448;45.532;5.290;2023-01-24T13:17:36;39.03;;;21.37;;
24325;SDS011;12448;45.532;5.290;2023-01-24T13:28:18;37.90;;;22.63;;
24325;SDS011;12448;45.532;5.290;2023-01-24T13:31:30;40.08;;;20.27;;
24325;SDS011;12448;45.532;5.290;2023-01-24T13:34:02;41.67;;;23.63;;
24325;SDS011;12448;45.532;5.290;2023-01-24T13:36:34;36.78;;;21.23;;
24325;SDS011;12448;45.532;5.290;2023-01-24T13:39:02;41.60;;;22.53;;
24325;SDS011;12448;45.532;5.290;2023-01-24T13:47:32;29.80;;;15.95;;
24325;SDS011;12448;45.532;5.290;2023-01-24T13:52:01;112.50;;;53.30;;
24325;SDS011;12448;45.532;5.290;2023-01-24T13:57:15;48.73;;;26.43;;
24325;SDS011;12448;45.532;5.290;2023-01-24T14:10:39;39.27;;;20.10;;
24325;SDS011;12448;45.532;5.290;2023-01-24T14:16:13;36.60;;;19.97;;
24325;SDS011;12448;45.532;5.290;2023-01-24T14:19:24;38.83;;;20.50;;
24325;SDS011;12448;45.532;5.290;2023-01-24T14:24:34;42.53;;;22.07;;
24325;SDS011;12448;45.532;5.290;2023-01-24T14:29:53;41.90;;;21.67;;
24325;SDS011;12448;45.532;5.290;2023-01-24T14:32:38;39.17;;;20.13;;
24325;SDS011;12448;45.532;5.290;2023-01-24T14:37:53;39.80;;;21.27;;
24325;SDS011;12448;45.532;5.290;2023-01-24T14:40:36;47.45;;;26.77;;
24325;SDS011;12448;45.532;5.290;2023-01-24T14:43:04;35.20;;;18.67;;
24325;SDS011;12448;45.532;5.290;2023-01-24T14:45:31;40.08;;;20.98;;
24325;SDS011;12448;45.532;5.290;2023-01-24T14:47:57;42.53;;;20.33;;
24325;SDS011;12448;45.532;5.290;2023-01-24T14:50:26;43.20;;;21.95;;
24325;SDS011;12448;45.532;5.290;2023-01-24T14:52:54;36.00;;;19.85;;
24325;SDS011;12448;45.532;5.290;2023-01-24T14:57:55;36.13;;;20.10;;
24325;SDS011;12448;45.532;5.290;2023-01-24T15:00:22;34.95;;;18.13;;
24325;SDS011;12448;45.532;5.290;2023-01-24T15:02:55;38.63;;;20.15;;
24325;SDS011;12448;45.532;5.290;2023-01-24T15:05:23;36.38;;;19.95;;
24325;SDS011;12448;45.532;5.290;2023-01-24T15:07:52;35.30;;;18.60;;
24325;SDS011;12448;45.532;5.290;2023-01-24T15:10:24;35.03;;;19.80;;
24325;SDS011;12448;45.532;5.290;2023-01-24T15:12:52;34.78;;;20.45;;
24325;SDS011;12448;45.532;5.290;2023-01-24T15:15:20;37.65;;;20.25;;
24325;SDS011;12448;45.532;5.290;2023-01-24T15:17:47;37.63;;;19.63;;
24325;SDS011;12448;45.532;5.290;2023-01-24T15:20:15;36.80;;;19.50;;
24325;SDS011;12448;45.532;5.290;2023-01-24T15:22:47;36.47;;;20.83;;
24325;SDS011;12448;45.532;5.290;2023-01-24T15:25:25;39.70;;;20.93;;
24325;SDS011;12448;45.532;5.290;2023-01-24T15:27:57;41.83;;;20.33;;
24325;SDS011;12448;45.532;5.290;2023-01-24T15:30:34;44.28;;;22.00;;
24325;SDS011;12448;45.532;5.290;2023-01-24T15:33:01;43.50;;;22.30;;
24325;SDS011;12448;45.532;5.290;2023-01-24T15:35:36;41.13;;;21.57;;
24325;SDS011;12448;45.532;5.290;2023-01-24T15:43:32;44.50;;;23.08;;
24325;SDS011;12448;45.532;5.290;2023-01-24T15:49:03;43.38;;;21.27;;
24325;SDS011;12448;45.532;5.290;2023-01-24T15:51:40;40.90;;;22.93;;
24325;SDS011;12448;45.532;5.290;2023-01-24T15:54:11;37.53;;;20.48;;
24325;SDS011;12448;45.532;5.290;2023-01-24T15:56:38;40.73;;;21.20;;
24325;SDS011;12448;45.532;5.290;2023-01-24T15:59:24;39.90;;;20.85;;
24325;SDS011;12448;45.532;5.290;2023-01-24T16:01:50;44.00;;;22.03;;
24325;SDS011;12448;45.532;5.290;2023-01-24T16:04:17;39.37;;;22.40;;
24325;SDS011;12448;45.532;5.290;2023-01-24T16:06:44;46.25;;;23.50;;
24325;SDS011;12448;45.532;5.290;2023-01-24T16:09:11;38.43;;;20.17;;
24325;SDS011;12448;45.532;5.290;2023-01-24T16:11:38;49.22;;;25.45;;
24325;SDS011;12448;45.532;5.290;2023-01-24T16:14:05;48.20;;;24.60;;
24325;SDS011;12448;45.532;5.290;2023-01-24T16:16:35;46.83;;;24.23;;
24325;SDS011;12448;45.532;5.290;2023-01-24T16:19:01;90.55;;;41.13;;
24325;SDS011;12448;45.532;5.290;2023-01-24T16:21:26;227.20;;;96.80;;
24325;SDS011;12448;45.532;5.290;2023-01-24T16:23:52;86.30;;;40.30;;
24325;SDS011;12448;45.532;5.290;2023-01-24T16:26:19;71.67;;;35.93;;
24325;SDS011;12448;45.532;5.290;2023-01-24T16:28:50;238.63;;;93.47;;
24325;SDS011;12448;45.532;5.290;2023-01-24T16:31:16;356.48;;;144.63;;
24325;SDS011;12448;45.532;5.290;2023-01-24T16:33:42;159.20;;;65.07;;
24325;SDS011;12448;45.532;5.290;2023-01-24T16:36:10;287.73;;;111.33;;
24325;SDS011;12448;45.532;5.290;2023-01-24T16:38:39;103.03;;;46.53;;
24325;SDS011;12448;45.532;5.290;2023-01-24T16:41:05;320.55;;;134.88;;
24325;SDS011;12448;45.532;5.290;2023-01-24T16:43:31;171.93;;;76.30;;
24325;SDS011;12448;45.532;5.290;2023-01-24T16:45:56;443.70;;;205.17;;
24325;SDS011;12448;45.532;5.290;2023-01-24T16:48:22;337.02;;;142.35;;
24325;SDS011;12448;45.532;5.290;2023-01-24T16:50:48;286.50;;;121.07;;
24325;SDS011;12448;45.532;5.290;2023-01-24T16:53:13;248.82;;;105.47;;
24325;SDS011;12448;45.532;5.290;2023-01-24T16:55:40;137.82;;;68.22;;
24325;SDS011;12448;45.532;5.290;2023-01-24T16:58:06;160.40;;;86.28;;
24325;SDS011;12448;45.532;5.290;2023-01-24T17:00:33;76.78;;;38.55;;